Time;durP1;ratioP1;P1;durP2;ratioP2;P2;SDS_P1;SDS_P2;PMS_P1;PMS_P2;Temp;Humidity;BMP_temperature;BMP_pressure;BME280_temperature;BME280_humidity;BME280_pressure;Samples;Min_cycle;Max_cycle;Signal;HPM_P1;HPM_P2
2022/11/30 00:01:50;;;;;;;;;;;27.80;95.10;;;;;;5125124;28;19949;-52
2022/11/30 00:04:16;;;;;;;;;;;27.80;95.10;;;;;;5125546;28;19914;-54
2022/11/30 00:06:42;;;;;;;;;;;27.80;95.00;;;;;;5124108;28;19910;-54
2022/11/30 00:09:09;;;;;;;;;;;27.80;95.00;;;;;;5125638;28;20203;-55
2022/11/30 00:11:35;;;;;;;;;;;27.80;94.90;;;;;;5125360;28;19918;-54
2022/11/30 00:14:01;;;;;;;;;;;27.80;94.90;;;;;;5125470;28;19948;-54
2022/11/30 00:16:27;;;;;;;;;;;27.80;94.90;;;;;;5125033;28;20218;-51
2022/11/30 00:18:53;;;;;;;;;;;27.80;94.90;;;;;;5125330;28;19912;-52
2022/11/30 00:21:20;;;;;;;;;;;27.80;94.90;;;;;;5124054;28;20224;-48
2022/11/30 00:23:47;;;;;;;;;;;27.70;94.90;;;;;;5124893;28;25105;-57
2022/11/30 00:26:14;;;;;;;;;;;27.70;94.90;;;;;;5124730;28;19935;-53
2022/11/30 00:28:41;;;;;;;;;;;27.70;94.90;;;;;;5124944;28;19915;-57
2022/11/30 00:31:10;;;;;;;;;;;27.70;94.90;;;;;;5124801;28;19938;-55
2022/11/30 00:33:38;;;;;;;;;;;27.70;94.70;;;;;;5124946;27;20065;-57
2022/11/30 00:36:05;;;;;;;;;;;27.70;94.70;;;;;;5124827;28;19903;-56
2022/11/30 00:38:32;;;;;;;;;;;27.70;94.70;;;;;;5124627;28;19942;-53
2022/11/30 00:40:59;;;;;;;;;;;27.70;94.70;;;;;;5124734;28;19919;-55
2022/11/30 00:43:25;;;;;;;;;;;27.70;94.60;;;;;;5117103;28;19967;-53
2022/11/30 00:45:51;;;;;;;;;;;27.70;94.70;;;;;;5109659;28;19946;-56
2022/11/30 00:48:18;;;;;;;;;;;27.70;94.80;;;;;;5124056;28;20002;-58
2022/11/30 00:50:44;;;;;;;;;;;27.70;94.70;;;;;;5123325;28;19903;-53
2022/11/30 00:53:10;;;;;;;;;;;27.60;94.70;;;;;;5124499;28;20083;-52
2022/11/30 00:55:36;;;;;;;;;;;27.50;94.90;;;;;;5124928;28;19964;-58
2022/11/30 00:58:02;;;;;;;;;;;27.50;94.90;;;;;;5121419;28;20073;-56
2022/11/30 01:00:29;;;;;;;;;;;27.50;94.90;;;;;;5107848;28;20031;-55
2022/11/30 01:02:56;;;;;;;;;;;27.50;94.80;;;;;;5119253;28;19904;-53
2022/11/30 01:05:22;;;;;;;;;;;27.40;94.70;;;;;;5124841;28;19904;-56
2022/11/30 01:07:49;;;;;;;;;;;27.40;94.80;;;;;;5124283;28;19906;-52
2022/11/30 01:10:15;;;;;;;;;;;27.50;94.70;;;;;;5125257;28;24104;-55
2022/11/30 01:12:42;;;;;;;;;;;27.50;94.60;;;;;;5120640;28;19904;-56
2022/11/30 01:15:08;;;;;;;;;;;27.50;94.50;;;;;;5110574;28;20080;-55
2022/11/30 01:17:37;;;;;;;;;;;27.50;94.60;;;;;;5112769;27;19903;-54
2022/11/30 01:20:04;;;;;;;;;;;27.50;94.50;;;;;;5116666;28;19962;-57
2022/11/30 01:22:30;;;;;;;;;;;27.40;94.50;;;;;;5124254;27;20155;-55
2022/11/30 01:24:56;;;;;;;;;;;27.40;94.50;;;;;;5118322;28;20199;-56
2022/11/30 01:27:22;;;;;;;;;;;27.40;94.40;;;;;;5124099;28;19911;-51
2022/11/30 01:29:48;;;;;;;;;;;27.40;94.40;;;;;;5114763;27;20145;-52
2022/11/30 01:32:15;;;;;;;;;;;27.40;94.40;;;;;;5118859;28;19926;-52
2022/11/30 01:34:41;;;;;;;;;;;27.40;94.40;;;;;;5108721;28;19914;-50
2022/11/30 01:37:07;;;;;;;;;;;27.50;94.30;;;;;;5121820;28;19907;-52
2022/11/30 01:39:33;;;;;;;;;;;27.50;94.30;;;;;;5113242;28;20176;-62
2022/11/30 01:41:59;;;;;;;;;;;27.50;94.50;;;;;;5121162;28;19934;-56
2022/11/30 01:44:27;;;;;;;;;;;27.40;94.40;;;;;;5112914;28;20192;-55
2022/11/30 01:46:56;;;;;;;;;;;27.40;94.50;;;;;;5114489;28;20247;-56
2022/11/30 01:49:51;;;;;;;;;;;27.50;94.50;;;;;;5116752;28;19920;-58
2022/11/30 01:52:19;;;;;;;;;;;27.50;94.30;;;;;;5099287;28;20189;-51
2022/11/30 01:55:12;;;;;;;;;;;27.50;94.30;;;;;;5109546;28;20118;-51
2022/11/30 01:57:41;;;;;;;;;;;27.50;94.30;;;;;;5100193;28;20189;-54
2022/11/30 02:00:09;;;;;;;;;;;27.50;94.30;;;;;;5128204;28;19951;-54
2022/11/30 02:02:54;;;;;;;;;;;27.50;94.00;;;;;;5127991;28;19981;-58
2022/11/30 02:05:20;;;;;;;;;;;27.40;94.10;;;;;;5128563;27;19908;-55
2022/11/30 02:07:46;;;;;;;;;;;27.40;94.10;;;;;;5116977;28;20130;-55
2022/11/30 02:10:14;;;;;;;;;;;27.40;94.10;;;;;;5121072;28;19911;-57
2022/11/30 02:12:59;;;;;;;;;;;27.40;93.90;;;;;;5127693;28;20105;-55
2022/11/30 02:15:29;;;;;;;;;;;27.40;94.00;;;;;;5127434;28;20191;-49
2022/11/30 02:18:15;;;;;;;;;;;27.40;93.90;;;;;;5127576;28;19939;-53
2022/11/30 02:20:53;;;;;;;;;;;27.40;93.90;;;;;;5126460;28;19911;-52
2022/11/30 02:23:38;;;;;;;;;;;27.40;93.90;;;;;;5127664;28;20133;-50
2022/11/30 02:26:10;;;;;;;;;;;27.40;93.80;;;;;;5127312;28;20187;-55
2022/11/30 02:28:45;;;;;;;;;;;27.40;93.80;;;;;;5120092;28;24096;-54
2022/11/30 02:31:14;;;;;;;;;;;27.40;93.70;;;;;;5106151;28;19942;-55
2022/11/30 02:33:42;;;;;;;;;;;27.40;93.90;;;;;;5106562;28;19908;-54
2022/11/30 02:36:08;;;;;;;;;;;27.40;93.70;;;;;;5106188;28;24128;-54
2022/11/30 02:38:35;;;;;;;;;;;27.40;93.90;;;;;;5106535;28;19908;-54
2022/11/30 02:41:02;;;;;;;;;;;27.40;94.10;;;;;;5106750;28;19904;-59
2022/11/30 02:43:29;;;;;;;;;;;27.30;94.30;;;;;;5106374;28;19971;-55
2022/11/30 02:46:05;;;;;;;;;;;27.30;94.40;;;;;;5106701;28;19904;-54
2022/11/30 02:48:40;;;;;;;;;;;27.20;94.50;;;;;;5106344;28;19919;-57
2022/11/30 02:51:06;;;;;;;;;;;27.30;94.70;;;;;;5106339;28;19903;-55
2022/11/30 02:53:33;;;;;;;;;;;27.30;94.80;;;;;;5114211;28;19990;-56
2022/11/30 02:55:59;;;;;;;;;;;27.30;94.80;;;;;;5111761;28;24086;-56
2022/11/30 02:58:25;;;;;;;;;;;27.30;94.90;;;;;;5110395;28;19908;-56
2022/11/30 03:00:52;;;;;;;;;;;27.30;94.80;;;;;;5113767;28;19965;-56
2022/11/30 03:03:18;;;;;;;;;;;27.30;94.80;;;;;;5110169;28;19908;-55
2022/11/30 03:05:44;;;;;;;;;;;27.30;94.90;;;;;;5106188;28;19907;-53
2022/11/30 03:08:10;;;;;;;;;;;27.20;94.90;;;;;;5113280;27;20099;-53
2022/11/30 03:10:36;;;;;;;;;;;27.30;94.90;;;;;;5110803;28;20248;-58
2022/11/30 03:13:04;;;;;;;;;;;27.20;94.90;;;;;;5124559;28;19900;-54
2022/11/30 03:15:30;;;;;;;;;;;27.20;94.90;;;;;;5126231;28;19910;-54
2022/11/30 03:18:00;;;;;;;;;;;27.20;94.80;;;;;;5119007;27;19927;-54
2022/11/30 03:20:26;;;;;;;;;;;27.20;94.80;;;;;;5105709;28;19914;-57
2022/11/30 03:22:53;;;;;;;;;;;27.20;94.80;;;;;;5105840;28;19904;-54
2022/11/30 03:25:20;;;;;;;;;;;27.10;94.90;;;;;;5105905;28;19941;-57
2022/11/30 03:27:46;;;;;;;;;;;27.20;94.90;;;;;;5105557;28;19947;-57
2022/11/30 03:30:12;;;;;;;;;;;27.10;95.00;;;;;;5111593;28;19919;-56
2022/11/30 03:32:39;;;;;;;;;;;27.10;94.90;;;;;;5119106;28;19910;-50
2022/11/30 03:35:05;;;;;;;;;;;27.00;95.00;;;;;;5124805;28;19916;-49
2022/11/30 03:37:31;;;;;;;;;;;27.10;95.00;;;;;;5125646;28;20099;-57
2022/11/30 03:39:57;;;;;;;;;;;27.10;95.00;;;;;;5125304;28;20190;-54
2022/11/30 03:42:23;;;;;;;;;;;27.10;95.00;;;;;;5123732;28;20129;-52
2022/11/30 03:44:49;;;;;;;;;;;27.10;94.80;;;;;;5122522;28;19908;-57
2022/11/30 03:47:15;;;;;;;;;;;27.10;94.80;;;;;;5114932;27;19912;-51
2022/11/30 03:49:42;;;;;;;;;;;27.10;94.90;;;;;;5117588;28;19919;-55
2022/11/30 03:52:08;;;;;;;;;;;27.10;94.80;;;;;;5113818;28;19904;-54
2022/11/30 03:54:34;;;;;;;;;;;27.10;94.90;;;;;;5105366;28;19947;-55
2022/11/30 03:57:00;;;;;;;;;;;27.10;94.90;;;;;;5105162;28;19907;-53
2022/11/30 03:59:26;;;;;;;;;;;27.10;94.80;;;;;;5108324;28;19980;-58
2022/11/30 04:01:52;;;;;;;;;;;27.10;94.60;;;;;;5120175;27;20191;-56
2022/11/30 04:04:18;;;;;;;;;;;27.10;94.70;;;;;;5124781;27;19908;-54
2022/11/30 04:06:44;;;;;;;;;;;27.10;94.70;;;;;;5116684;28;19945;-56
2022/11/30 04:09:11;;;;;;;;;;;27.10;94.70;;;;;;5124718;28;20161;-53
2022/11/30 04:11:37;;;;;;;;;;;27.00;94.60;;;;;;5125939;28;24106;-55
2022/11/30 04:14:03;;;;;;;;;;;27.00;94.70;;;;;;5126072;28;19939;-53
2022/11/30 04:16:29;;;;;;;;;;;27.00;94.70;;;;;;5125835;28;19926;-57
2022/11/30 04:18:55;;;;;;;;;;;27.00;94.60;;;;;;5110142;28;19908;-54
2022/11/30 04:21:21;;;;;;;;;;;27.00;94.50;;;;;;5109322;28;19904;-53
2022/11/30 04:23:48;;;;;;;;;;;27.00;94.40;;;;;;5109812;28;19907;-54
2022/11/30 04:26:15;;;;;;;;;;;27.00;94.50;;;;;;5122181;28;20051;-55
2022/11/30 04:28:45;;;;;;;;;;;27.00;94.50;;;;;;5125636;28;19912;-57
2022/11/30 04:31:11;;;;;;;;;;;27.00;94.50;;;;;;5123633;28;19910;-53
2022/11/30 04:33:37;;;;;;;;;;;27.00;94.50;;;;;;5105347;28;19915;-54
2022/11/30 04:36:05;;;;;;;;;;;27.00;94.40;;;;;;5105629;28;24061;-53
2022/11/30 04:38:31;;;;;;;;;;;26.90;94.40;;;;;;5104833;28;20142;-56
2022/11/30 04:40:58;;;;;;;;;;;27.00;94.40;;;;;;5111663;28;19903;-53
2022/11/30 04:43:25;;;;;;;;;;;27.00;94.50;;;;;;5125052;28;24075;-55
2022/11/30 04:45:51;;;;;;;;;;;26.90;94.30;;;;;;5124882;28;20092;-53
2022/11/30 04:48:18;;;;;;;;;;;26.90;94.30;;;;;;5125242;28;20187;-56
2022/11/30 04:50:44;;;;;;;;;;;26.90;94.20;;;;;;5125003;28;19929;-55
2022/11/30 04:53:10;;;;;;;;;;;26.90;94.30;;;;;;5125051;28;24142;-56
2022/11/30 04:55:38;;;;;;;;;;;26.90;94.30;;;;;;5124792;28;20176;-57
2022/11/30 04:58:05;;;;;;;;;;;27.00;94.20;;;;;;5124878;28;19938;-55
2022/11/30 05:00:31;;;;;;;;;;;26.90;94.20;;;;;;5124464;28;19912;-52
2022/11/30 05:02:57;;;;;;;;;;;27.00;94.10;;;;;;5124247;28;19900;-59
2022/11/30 05:05:23;;;;;;;;;;;27.00;94.10;;;;;;5124174;28;19926;-55
2022/11/30 05:07:50;;;;;;;;;;;27.00;94.10;;;;;;5124745;28;19904;-55
2022/11/30 05:10:16;;;;;;;;;;;27.00;93.90;;;;;;5124390;28;20211;-55
2022/11/30 05:12:42;;;;;;;;;;;26.90;94.00;;;;;;5124409;28;19910;-58
2022/11/30 05:15:09;;;;;;;;;;;26.90;94.20;;;;;;5124753;28;19907;-55
2022/11/30 05:17:35;;;;;;;;;;;26.90;94.20;;;;;;5124291;28;20006;-54
2022/11/30 05:20:01;;;;;;;;;;;26.90;93.90;;;;;;5124596;28;19908;-58
2022/11/30 05:22:27;;;;;;;;;;;26.90;94.00;;;;;;5106866;28;19955;-55
2022/11/30 05:24:53;;;;;;;;;;;26.90;94.00;;;;;;5104259;28;20181;-53
2022/11/30 05:27:19;;;;;;;;;;;26.90;93.90;;;;;;5104010;28;19904;-54
2022/11/30 05:29:46;;;;;;;;;;;26.90;93.90;;;;;;5104300;28;19908;-55
2022/11/30 05:32:12;;;;;;;;;;;26.90;93.90;;;;;;5103526;28;19943;-58
2022/11/30 05:34:38;;;;;;;;;;;26.90;93.90;;;;;;5104071;28;19916;-57
2022/11/30 05:37:04;;;;;;;;;;;26.90;93.90;;;;;;5103505;28;19904;-54
2022/11/30 05:39:30;;;;;;;;;;;26.90;93.80;;;;;;5104111;28;19915;-58
2022/11/30 05:41:57;;;;;;;;;;;26.90;93.90;;;;;;5103687;28;20188;-56
2022/11/30 05:44:23;;;;;;;;;;;26.90;93.80;;;;;;5104080;28;19993;-53
2022/11/30 05:46:50;;;;;;;;;;;26.90;93.70;;;;;;5103536;28;19900;-55
2022/11/30 05:49:16;;;;;;;;;;;26.90;93.60;;;;;;5103962;28;19912;-55
2022/11/30 05:51:42;;;;;;;;;;;26.90;93.70;;;;;;5103824;28;20251;-56
2022/11/30 05:54:08;;;;;;;;;;;26.80;93.90;;;;;;5104029;28;20064;-58
2022/11/30 05:56:35;;;;;;;;;;;26.80;94.00;;;;;;5104770;28;24059;-55
2022/11/30 05:59:01;;;;;;;;;;;26.80;93.90;;;;;;5107076;28;25083;-58
2022/11/30 06:01:28;;;;;;;;;;;26.80;94.00;;;;;;5107367;28;20072;-55
2022/11/30 06:03:55;;;;;;;;;;;26.80;93.90;;;;;;5107283;28;19915;-56
2022/11/30 06:06:21;;;;;;;;;;;26.80;94.00;;;;;;5107385;28;19900;-61
2022/11/30 06:08:48;;;;;;;;;;;26.80;93.90;;;;;;5107324;28;19912;-55
2022/11/30 06:11:15;;;;;;;;;;;26.80;94.00;;;;;;5117079;28;19900;-60
2022/11/30 06:13:41;;;;;;;;;;;26.80;93.90;;;;;;5127789;28;20183;-57
2022/11/30 06:16:08;;;;;;;;;;;26.90;93.90;;;;;;5127198;28;19940;-52
2022/11/30 06:18:34;;;;;;;;;;;26.80;93.90;;;;;;5127509;28;19966;-58
2022/11/30 06:21:01;;;;;;;;;;;26.80;93.90;;;;;;5127159;28;24077;-56
2022/11/30 06:23:27;;;;;;;;;;;26.80;93.90;;;;;;5127379;27;19915;-55
2022/11/30 06:25:53;;;;;;;;;;;26.80;93.90;;;;;;5127399;27;19964;-57
2022/11/30 06:28:20;;;;;;;;;;;26.80;93.90;;;;;;5127025;28;19949;-55
2022/11/30 06:30:46;;;;;;;;;;;26.80;93.90;;;;;;5127278;28;19923;-55
2022/11/30 06:33:12;;;;;;;;;;;26.80;93.70;;;;;;5126759;28;20087;-62
2022/11/30 06:35:44;;;;;;;;;;;26.80;93.80;;;;;;5126936;28;19979;-59
2022/11/30 06:38:10;;;;;;;;;;;26.80;93.80;;;;;;5127039;28;24072;-55
2022/11/30 06:40:36;;;;;;;;;;;26.80;93.80;;;;;;5126779;28;19940;-56
2022/11/30 06:43:02;;;;;;;;;;;26.80;93.80;;;;;;5126901;28;19908;-55
2022/11/30 06:45:28;;;;;;;;;;;26.80;93.70;;;;;;5126828;28;20210;-57
2022/11/30 06:47:55;;;;;;;;;;;26.70;93.80;;;;;;5126765;28;19962;-58
2022/11/30 06:50:21;;;;;;;;;;;26.80;94.00;;;;;;5126448;28;24067;-59
2022/11/30 06:52:47;;;;;;;;;;;26.70;94.00;;;;;;5126698;28;19900;-56
2022/11/30 06:55:14;;;;;;;;;;;26.70;94.10;;;;;;5127260;28;20061;-61
2022/11/30 06:57:40;;;;;;;;;;;26.70;94.30;;;;;;5126220;27;19904;-60
2022/11/30 07:00:07;;;;;;;;;;;26.60;94.00;;;;;;5126470;28;19939;-60
2022/11/30 07:02:33;;;;;;;;;;;26.70;94.20;;;;;;5126460;28;19949;-59
2022/11/30 07:04:59;;;;;;;;;;;26.70;94.20;;;;;;5126758;28;20079;-58
2022/11/30 07:07:27;;;;;;;;;;;26.70;94.30;;;;;;5127033;28;20224;-59
2022/11/30 07:09:53;;;;;;;;;;;26.60;94.30;;;;;;5126753;28;20252;-62
2022/11/30 07:12:20;;;;;;;;;;;26.60;94.40;;;;;;5125933;28;19899;-58
2022/11/30 07:14:46;;;;;;;;;;;26.60;94.30;;;;;;5126094;28;20095;-58
2022/11/30 07:17:12;;;;;;;;;;;26.60;94.40;;;;;;5126017;28;19900;-59
2022/11/30 07:19:38;;;;;;;;;;;26.60;94.60;;;;;;5126512;28;19961;-57
2022/11/30 07:22:04;;;;;;;;;;;26.60;94.60;;;;;;5126125;27;19944;-58
2022/11/30 07:27:14;;;;;;;;;;;26.60;94.60;;;;;;5125878;28;20138;-61
2022/11/30 07:29:41;;;;;;;;;;;26.60;94.50;;;;;;5126201;28;19908;-61
2022/11/30 07:32:07;;;;;;;;;;;26.60;94.50;;;;;;5125963;28;19949;-60
2022/11/30 07:34:33;;;;;;;;;;;26.60;94.50;;;;;;5126179;28;19907;-58
2022/11/30 07:36:59;;;;;;;;;;;26.60;94.50;;;;;;5125758;28;19900;-56
2022/11/30 07:39:25;;;;;;;;;;;26.60;94.40;;;;;;5126139;28;19908;-55
2022/11/30 07:41:51;;;;;;;;;;;26.60;94.40;;;;;;5125674;28;20095;-58
2022/11/30 07:44:17;;;;;;;;;;;26.60;94.40;;;;;;5126273;28;24071;-60
2022/11/30 07:46:43;;;;;;;;;;;26.60;94.40;;;;;;5125592;28;20133;-59
2022/11/30 07:49:10;;;;;;;;;;;26.60;94.30;;;;;;5125714;28;19978;-57
2022/11/30 07:51:36;;;;;;;;;;;26.60;94.30;;;;;;5125676;28;19904;-56
2022/11/30 07:54:03;;;;;;;;;;;26.50;94.10;;;;;;5125750;28;19908;-56
2022/11/30 07:56:29;;;;;;;;;;;26.60;94.20;;;;;;5125372;28;19904;-59
2022/11/30 07:58:56;;;;;;;;;;;26.50;94.30;;;;;;5125322;28;20191;-57
2022/11/30 08:01:23;;;;;;;;;;;26.50;94.50;;;;;;5125347;28;24070;-58
2022/11/30 08:03:50;;;;;;;;;;;26.50;94.30;;;;;;5125282;28;19948;-57
2022/11/30 08:06:20;;;;;;;;;;;26.50;94.30;;;;;;5125200;28;19899;-60
2022/11/30 08:08:48;;;;;;;;;;;26.50;94.30;;;;;;5125362;28;19911;-61
2022/11/30 08:11:15;;;;;;;;;;;26.50;94.30;;;;;;5124929;28;19900;-60
2022/11/30 08:13:41;;;;;;;;;;;26.50;94.30;;;;;;5125276;28;20203;-61
2022/11/30 08:16:11;;;;;;;;;;;26.60;94.40;;;;;;5125123;28;19966;-58
2022/11/30 08:18:38;;;;;;;;;;;26.50;94.30;;;;;;5124693;28;19939;-60
2022/11/30 08:21:06;;;;;;;;;;;26.60;94.20;;;;;;5124879;28;19911;-57
2022/11/30 08:23:37;;;;;;;;;;;26.60;94.10;;;;;;5125068;28;19918;-61
2022/11/30 08:26:05;;;;;;;;;;;26.60;94.00;;;;;;5124902;28;19910;-62
2022/11/30 08:28:31;;;;;;;;;;;26.50;94.10;;;;;;5124914;28;19908;-64
2022/11/30 08:31:02;;;;;;;;;;;26.60;94.30;;;;;;5124915;27;19899;-65
2022/11/30 08:33:32;;;;;;;;;;;26.60;94.30;;;;;;5124639;28;20086;-58
2022/11/30 08:36:08;;;;;;;;;;;26.60;94.40;;;;;;5124793;28;19937;-59
2022/11/30 08:38:34;;;;;;;;;;;26.60;94.40;;;;;;5124856;28;19907;-59
2022/11/30 08:41:01;;;;;;;;;;;26.60;94.50;;;;;;5124708;28;19904;-60
2022/11/30 08:43:27;;;;;;;;;;;26.60;94.50;;;;;;5124793;28;24081;-59
2022/11/30 08:45:53;;;;;;;;;;;26.60;94.60;;;;;;5124583;28;20183;-57
2022/11/30 08:48:19;;;;;;;;;;;26.60;94.60;;;;;;5125030;28;19904;-60
2022/11/30 08:50:46;;;;;;;;;;;26.50;94.80;;;;;;5124823;28;19904;-61
2022/11/30 08:53:12;;;;;;;;;;;26.50;94.80;;;;;;5124568;28;19914;-64
2022/11/30 08:55:38;;;;;;;;;;;26.40;94.80;;;;;;5124548;28;19919;-60
2022/11/30 08:58:04;;;;;;;;;;;26.50;94.80;;;;;;5124494;28;19903;-63
2022/11/30 09:00:30;;;;;;;;;;;26.40;94.90;;;;;;5124405;28;19918;-59
2022/11/30 09:02:56;;;;;;;;;;;26.50;95.10;;;;;;5124584;28;19931;-59
2022/11/30 09:05:22;;;;;;;;;;;26.50;95.10;;;;;;5124474;28;19946;-56
2022/11/30 09:07:48;;;;;;;;;;;26.50;95.40;;;;;;5124478;28;19903;-58
2022/11/30 09:10:14;;;;;;;;;;;26.50;95.20;;;;;;5124855;28;19919;-56
2022/11/30 09:12:41;;;;;;;;;;;26.50;95.30;;;;;;5124515;28;19906;-57
2022/11/30 09:15:07;;;;;;;;;;;26.50;95.40;;;;;;5125140;28;19912;-56
2022/11/30 09:17:34;;;;;;;;;;;26.40;95.10;;;;;;5124051;28;20219;-57
2022/11/30 09:20:00;;;;;;;;;;;26.40;95.20;;;;;;5124764;28;19908;-56
2022/11/30 09:22:27;;;;;;;;;;;26.30;95.30;;;;;;5124251;28;19904;-56
2022/11/30 09:24:53;;;;;;;;;;;26.30;95.50;;;;;;5124719;28;19963;-59
2022/11/30 09:27:20;;;;;;;;;;;26.30;95.50;;;;;;5124502;28;19903;-57
2022/11/30 09:29:46;;;;;;;;;;;26.30;95.50;;;;;;5124690;28;19912;-58
2022/11/30 09:32:12;;;;;;;;;;;26.30;95.60;;;;;;5126425;28;19910;-58
2022/11/30 09:34:38;;;;;;;;;;;26.30;95.60;;;;;;5127210;28;19915;-61
2022/11/30 09:37:04;;;;;;;;;;;26.30;95.70;;;;;;5128444;28;20118;-56
2022/11/30 09:39:30;;;;;;;;;;;26.30;95.70;;;;;;5128515;28;24091;-55
2022/11/30 09:42:02;;;;;;;;;;;26.30;95.80;;;;;;5128075;28;20205;-61
2022/11/30 09:44:35;;;;;;;;;;;26.30;95.90;;;;;;5128130;28;19915;-57
2022/11/30 09:47:01;;;;;;;;;;;26.20;96.00;;;;;;5127990;28;19903;-61
2022/11/30 09:49:29;;;;;;;;;;;26.30;96.00;;;;;;5128145;28;25098;-62
2022/11/30 09:51:58;;;;;;;;;;;26.30;96.20;;;;;;5127890;28;19942;-59
2022/11/30 09:54:36;;;;;;;;;;;26.20;96.10;;;;;;5128014;28;19926;-56
2022/11/30 09:57:08;;;;;;;;;;;26.20;96.10;;;;;;5127829;28;19941;-57
2022/11/30 09:59:36;;;;;;;;;;;26.20;96.20;;;;;;5127490;28;20077;-58
2022/11/30 10:02:10;;;;;;;;;;;26.20;96.30;;;;;;5127672;28;19903;-56
2022/11/30 10:04:37;;;;;;;;;;;26.20;96.40;;;;;;5128001;28;19908;-56
2022/11/30 10:07:26;;;;;;;;;;;26.20;96.40;;;;;;5127534;28;19903;-55
2022/11/30 10:10:00;;;;;;;;;;;26.30;96.40;;;;;;5108301;28;19949;-58
2022/11/30 10:12:30;;;;;;;;;;;26.20;96.50;;;;;;5127476;27;19911;-58
2022/11/30 10:15:19;;;;;;;;;;;26.20;96.40;;;;;;5128108;28;19910;-58
2022/11/30 10:17:55;;;;;;;;;;;26.20;96.30;;;;;;5127418;28;25038;-59
2022/11/30 10:20:21;;;;;;;;;;;26.20;96.40;;;;;;5127298;28;19908;-57
2022/11/30 10:23:06;;;;;;;;;;;26.30;96.40;;;;;;5127231;28;19927;-54
2022/11/30 10:25:47;;;;;;;;;;;26.20;96.50;;;;;;5127561;28;20182;-55
2022/11/30 10:28:18;;;;;;;;;;;26.20;96.40;;;;;;5130388;27;19907;-54
2022/11/30 10:30:45;;;;;;;;;;;26.20;96.40;;;;;;5147712;27;20021;-55
2022/11/30 10:33:18;;;;;;;;;;;26.20;96.50;;;;;;5147156;27;19907;-54
2022/11/30 10:35:52;;;;;;;;;;;26.20;96.40;;;;;;5147796;27;19989;-57
2022/11/30 10:38:21;;;;;;;;;;;26.20;96.30;;;;;;5147617;27;19908;-56
2022/11/30 10:40:53;;;;;;;;;;;26.30;96.30;;;;;;5147570;27;19970;-59
2022/11/30 10:43:23;;;;;;;;;;;26.20;96.30;;;;;;5147330;27;19908;-62
2022/11/30 10:45:50;;;;;;;;;;;26.20;96.40;;;;;;5147569;27;19974;-58
2022/11/30 10:48:19;;;;;;;;;;;26.30;96.50;;;;;;5147652;27;19919;-57
2022/11/30 10:50:46;;;;;;;;;;;26.20;96.40;;;;;;5147308;27;24073;-56
2022/11/30 10:53:12;;;;;;;;;;;26.30;96.40;;;;;;5147525;27;20163;-57
2022/11/30 10:55:58;;;;;;;;;;;26.20;96.30;;;;;;5147361;27;19981;-61
2022/11/30 10:58:28;;;;;;;;;;;26.20;96.30;;;;;;5147267;27;19953;-57
2022/11/30 11:01:05;;;;;;;;;;;26.30;96.40;;;;;;5145026;27;19950;-55
2022/11/30 11:03:31;;;;;;;;;;;26.20;96.50;;;;;;5135417;27;20259;-56
2022/11/30 11:06:05;;;;;;;;;;;26.20;96.50;;;;;;5140994;27;19972;-55
2022/11/30 11:08:31;;;;;;;;;;;26.20;96.60;;;;;;5147847;27;19914;-60
2022/11/30 11:10:57;;;;;;;;;;;26.20;96.80;;;;;;5145247;27;19903;-56
2022/11/30 11:13:38;;;;;;;;;;;26.20;96.70;;;;;;5137028;27;20166;-56
2022/11/30 11:16:08;;;;;;;;;;;26.20;96.80;;;;;;5136763;27;19904;-57
2022/11/30 11:18:35;;;;;;;;;;;26.20;96.90;;;;;;5128212;27;24097;-55
2022/11/30 11:21:02;;;;;;;;;;;26.20;96.90;;;;;;5150301;27;19899;-55
2022/11/30 11:23:34;;;;;;;;;;;26.20;96.90;;;;;;5167765;27;19976;-52
2022/11/30 11:26:00;;;;;;;;;;;26.30;96.90;;;;;;5147460;27;19927;-53
2022/11/30 11:28:26;;;;;;;;;;;26.30;96.90;;;;;;5139253;27;19914;-51
2022/11/30 11:30:54;;;;;;;;;;;26.30;96.90;;;;;;5132987;27;19903;-58
2022/11/30 11:33:20;;;;;;;;;;;26.30;97.10;;;;;;5125882;28;24091;-52
2022/11/30 11:35:46;;;;;;;;;;;26.30;97.00;;;;;;5126576;28;24063;-52
2022/11/30 11:38:21;;;;;;;;;;;26.30;97.00;;;;;;5126742;28;19916;-51
2022/11/30 11:41:06;;;;;;;;;;;26.30;96.90;;;;;;5126588;28;19911;-51
2022/11/30 11:43:34;;;;;;;;;;;26.30;96.90;;;;;;5125399;28;19914;-53
2022/11/30 11:46:11;;;;;;;;;;;26.40;96.80;;;;;;5124440;28;20059;-54
2022/11/30 11:48:56;;;;;;;;;;;26.40;96.70;;;;;;5124275;28;24114;-55
2022/11/30 11:51:30;;;;;;;;;;;26.40;96.70;;;;;;5106171;27;19908;-48
2022/11/30 11:54:00;;;;;;;;;;;26.40;96.60;;;;;;5130085;27;19915;-55
2022/11/30 11:56:30;;;;;;;;;;;26.40;96.60;;;;;;5135921;27;19935;-53
2022/11/30 11:59:07;;;;;;;;;;;26.40;96.60;;;;;;5129472;27;19984;-51
2022/11/30 12:01:39;;;;;;;;;;;26.40;96.70;;;;;;5136172;27;19966;-52
2022/11/30 12:04:14;;;;;;;;;;;26.40;96.70;;;;;;5142926;27;20056;-54
2022/11/30 12:06:42;;;;;;;;;;;26.40;96.90;;;;;;5115117;27;19904;-50
2022/11/30 12:09:21;;;;;;;;;;;26.40;96.90;;;;;;5133929;27;19937;-52
2022/11/30 12:11:48;;;;;;;;;;;26.40;96.80;;;;;;5127530;27;24075;-51
2022/11/30 12:14:15;;;;;;;;;;;26.40;97.00;;;;;;5145490;27;19970;-50
2022/11/30 12:16:53;;;;;;;;;;;26.40;96.90;;;;;;5145684;27;19941;-53
2022/11/30 12:19:26;;;;;;;;;;;26.50;96.90;;;;;;5145798;27;19907;-53
2022/11/30 12:21:55;;;;;;;;;;;26.50;96.90;;;;;;5145465;27;19918;-52
2022/11/30 12:24:24;;;;;;;;;;;26.50;96.90;;;;;;5145897;27;24077;-51
2022/11/30 12:26:58;;;;;;;;;;;26.50;96.90;;;;;;5145402;27;19903;-54
2022/11/30 12:29:44;;;;;;;;;;;26.50;96.80;;;;;;5145604;27;20087;-53
2022/11/30 12:32:10;;;;;;;;;;;26.50;96.80;;;;;;5113330;27;20232;-52
2022/11/30 12:34:48;;;;;;;;;;;26.60;96.70;;;;;;5145707;27;20183;-55
2022/11/30 12:37:22;;;;;;;;;;;26.60;96.60;;;;;;5145380;27;19970;-54
2022/11/30 12:40:00;;;;;;;;;;;26.60;96.40;;;;;;5146044;27;19944;-59
2022/11/30 12:42:45;;;;;;;;;;;26.60;96.10;;;;;;5146418;27;19939;-56
2022/11/30 12:45:15;;;;;;;;;;;26.60;96.00;;;;;;5145455;27;19908;-58
2022/11/30 12:48:05;;;;;;;;;;;26.60;95.90;;;;;;5127569;27;20115;-53
2022/11/30 12:50:49;;;;;;;;;;;26.60;95.80;;;;;;5131734;27;19911;-53
2022/11/30 12:53:19;;;;;;;;;;;26.60;95.90;;;;;;5145172;27;19983;-57
2022/11/30 12:56:00;;;;;;;;;;;26.60;95.80;;;;;;5145128;28;19903;-52
2022/11/30 12:58:34;;;;;;;;;;;26.70;95.80;;;;;;5144781;28;19911;-51
2022/11/30 13:01:10;;;;;;;;;;;26.70;95.80;;;;;;5142674;28;19914;-53
2022/11/30 13:03:43;;;;;;;;;;;26.70;95.70;;;;;;5133758;28;19908;-55
2022/11/30 13:06:15;;;;;;;;;;;26.70;95.60;;;;;;5128822;27;19904;-54
2022/11/30 13:08:45;;;;;;;;;;;26.70;95.60;;;;;;5137880;27;19939;-57
2022/11/30 13:11:14;;;;;;;;;;;26.70;95.50;;;;;;5128479;28;19953;-56
2022/11/30 13:13:44;;;;;;;;;;;26.80;95.40;;;;;;5152786;27;19907;-57
2022/11/30 13:16:10;;;;;;;;;;;26.80;95.40;;;;;;5162260;27;19930;-53
2022/11/30 13:18:36;;;;;;;;;;;26.80;95.40;;;;;;5158013;27;19907;-52
2022/11/30 13:21:15;;;;;;;;;;;26.80;95.20;;;;;;5127858;27;20217;-58
2022/11/30 13:23:45;;;;;;;;;;;26.80;95.20;;;;;;5128600;28;19908;-60
2022/11/30 13:26:23;;;;;;;;;;;26.90;95.10;;;;;;5128620;27;19931;-54
2022/11/30 13:28:56;;;;;;;;;;;26.90;94.90;;;;;;5129380;27;19918;-52
2022/11/30 13:31:24;;;;;;;;;;;26.90;94.90;;;;;;5135693;27;19903;-54
2022/11/30 13:33:53;;;;;;;;;;;26.90;95.00;;;;;;5149175;27;19949;-57
2022/11/30 13:36:34;;;;;;;;;;;26.90;94.80;;;;;;5129667;27;19903;-55
2022/11/30 13:39:08;;;;;;;;;;;26.90;94.80;;;;;;5136792;27;19911;-51
2022/11/30 13:41:34;;;;;;;;;;;26.90;94.60;;;;;;5136483;27;24089;-55
2022/11/30 13:44:02;;;;;;;;;;;27.00;94.80;;;;;;5148651;27;19969;-52
2022/11/30 13:46:28;;;;;;;;;;;27.00;93.90;;;;;;5135097;27;19911;-55
2022/11/30 13:49:21;;;;;;;;;;;27.00;94.10;;;;;;5133368;27;19986;-54
2022/11/30 13:51:47;;;;;;;;;;;27.00;93.90;;;;;;5127898;27;19904;-58
2022/11/30 13:54:32;;;;;;;;;;;27.00;93.80;;;;;;5131846;27;19903;-52
2022/11/30 13:56:58;;;;;;;;;;;27.00;94.00;;;;;;5148446;27;19903;-54
2022/11/30 13:59:24;;;;;;;;;;;27.00;93.50;;;;;;5138840;27;19974;-55
2022/11/30 14:01:50;;;;;;;;;;;27.00;93.60;;;;;;5147830;27;19907;-56
2022/11/30 14:04:17;;;;;;;;;;;27.10;93.60;;;;;;5140170;27;20048;-57
2022/11/30 14:06:43;;;;;;;;;;;27.10;93.40;;;;;;5127454;28;19911;-59
2022/11/30 14:09:15;;;;;;;;;;;27.10;93.00;;;;;;5127414;28;19918;-57
2022/11/30 14:11:42;;;;;;;;;;;27.10;93.40;;;;;;5145231;27;20167;-59
2022/11/30 14:14:31;;;;;;;;;;;27.20;93.50;;;;;;5131946;27;20079;-60
2022/11/30 14:16:58;;;;;;;;;;;27.20;93.30;;;;;;5116456;27;19904;-54
2022/11/30 14:19:25;;;;;;;;;;;27.20;93.40;;;;;;5152989;27;19907;-56
2022/11/30 14:21:51;;;;;;;;;;;27.20;93.60;;;;;;5153329;27;20241;-58
2022/11/30 14:24:19;;;;;;;;;;;27.30;93.20;;;;;;5138479;27;19907;-53
2022/11/30 14:26:47;;;;;;;;;;;27.30;93.10;;;;;;5127704;27;20281;-49
2022/11/30 14:29:43;;;;;;;;;;;27.30;93.60;;;;;;5138478;27;19911;-51